Time;durP1;ratioP1;P1;durP2;ratioP2;P2;SDS_P1;SDS_P2;PMS_P1;PMS_P2;Temp;Humidity;BMP_temperature;BMP_pressure;BME280_temperature;BME280_humidity;BME280_pressure;Samples;Min_cycle;Max_cycle;Signal;HPM_P1;HPM_P2
2022/10/15 00:00:29;;;;;;;8.88;4.15;;;;;;;13.84;74.06;92592.66;2051549;70;20969;-83
2022/10/15 00:02:55;;;;;;;8.98;4.03;;;;;;;13.85;73.38;92596.94;2051682;70;20560;-83
2022/10/15 00:05:21;;;;;;;11.20;4.07;;;;;;;13.89;72.18;92591.47;2051566;70;20601;-82
2022/10/15 00:07:47;;;;;;;9.70;4.55;;;;;;;13.86;73.41;92597.66;2051579;70;20147;-80
2022/10/15 00:10:13;;;;;;;11.85;4.22;;;;;;;13.85;73.47;92594.09;2051952;70;20138;-82
2022/10/15 00:12:40;;;;;;;10.65;4.25;;;;;;;13.88;72.87;92590.00;2051479;70;20190;-81
2022/10/15 00:15:06;;;;;;;11.27;4.10;;;;;;;13.88;73.86;92587.19;2051713;70;20605;-80
2022/10/15 00:17:34;;;;;;;9.57;4.05;;;;;;;13.87;73.46;92580.03;2051780;70;20924;-83
2022/10/15 00:20:01;;;;;;;9.27;3.97;;;;;;;13.80;74.54;92583.97;2051701;69;20613;-82
2022/10/15 00:22:27;;;;;;;10.23;4.30;;;;;;;13.71;73.32;92584.94;2051614;70;20597;-81
2022/10/15 00:24:53;;;;;;;8.50;4.13;;;;;;;13.79;72.03;92579.69;2048290;70;20232;-82
2022/10/15 00:27:19;;;;;;;7.70;3.80;;;;;;;13.82;74.15;92578.38;2051629;70;20558;-81
2022/10/15 00:29:44;;;;;;;8.52;4.00;;;;;;;13.80;74.74;92583.22;2048523;70;20150;-81
2022/10/15 00:32:10;;;;;;;7.60;4.10;;;;;;;13.75;73.98;92581.59;2054062;70;20204;-83
2022/10/15 00:34:38;;;;;;;10.68;4.25;;;;;;;13.63;76.37;92579.63;2051840;70;20236;-80
2022/10/15 00:37:04;;;;;;;6.93;3.85;;;;;;;13.70;73.91;92575.72;2051247;70;20237;-81
2022/10/15 00:39:30;;;;;;;6.93;3.60;;;;;;;13.74;73.35;92578.00;2052004;70;20149;-82
2022/10/15 00:41:56;;;;;;;7.93;3.88;;;;;;;13.79;73.00;92573.25;2051207;70;20521;-81
2022/10/15 00:44:24;;;;;;;8.65;3.90;;;;;;;13.80;74.05;92569.81;2051902;70;20245;-83
2022/10/15 00:46:56;;;;;;;8.38;3.90;;;;;;;13.75;74.79;92562.50;2053808;70;20150;-83
2022/10/15 00:49:38;;;;;;;11.20;4.90;;;;;;;13.79;73.78;92564.78;2051096;70;20193;-82
2022/10/15 00:52:09;;;;;;;5.90;3.65;;;;;;;13.76;74.42;92563.25;2051833;70;20589;-79
2022/10/15 00:54:58;;;;;;;8.32;4.00;;;;;;;13.81;72.99;92570.53;2054020;70;20744;-82
2022/10/15 00:57:26;;;;;;;7.60;3.85;;;;;;;13.75;74.04;92562.50;2051707;70;20150;-81
2022/10/15 00:59:56;;;;;;;8.50;4.07;;;;;;;13.76;74.64;92558.31;2051072;70;20213;-80
2022/10/15 01:02:21;;;;;;;9.43;4.70;;;;;;;13.56;76.69;92560.91;2049963;70;20854;-82
2022/10/15 01:04:48;;;;;;;9.88;3.75;;;;;;;13.66;74.56;92567.06;2048065;70;20154;-81
2022/10/15 01:07:14;;;;;;;9.80;3.92;;;;;;;13.61;75.41;92554.09;2051205;70;20180;-80
2022/10/15 01:09:43;;;;;;;9.63;3.33;;;;;;;13.51;76.17;92550.03;2051792;70;20680;-79
2022/10/15 01:12:18;;;;;;;6.68;3.35;;;;;;;13.62;74.72;92558.38;2053557;70;20154;-81
2022/10/15 01:14:54;;;;;;;5.85;3.47;;;;;;;13.67;72.98;92556.47;2050698;70;20583;-81
2022/10/15 01:17:43;;;;;;;7.85;3.60;;;;;;;13.65;73.59;92554.28;2050834;70;20237;-80
2022/10/15 01:20:24;;;;;;;5.43;3.30;;;;;;;13.63;74.76;92553.44;2051282;70;20165;-83
2022/10/15 01:23:05;;;;;;;6.60;3.88;;;;;;;13.70;73.37;92555.94;2051844;70;20590;-82
2022/10/15 01:26:09;;;;;;;7.57;3.17;;;;;;;13.73;73.23;92545.44;2051357;70;20139;-80
2022/10/15 01:28:52;;;;;;;8.65;4.40;;;;;;;13.66;73.96;92552.91;2053891;70;20628;-82
2022/10/15 01:31:20;;;;;;;10.00;4.45;;;;;;;13.65;74.28;92550.69;2050767;70;20158;-81
2022/10/15 01:34:20;;;;;;;7.78;3.63;;;;;;;13.57;75.39;92553.91;2051505;70;20145;-82
2022/10/15 01:37:02;;;;;;;10.13;4.20;;;;;;;13.61;74.98;92556.19;2051057;70;20604;-82
2022/10/15 01:39:38;;;;;;;19.05;11.15;;;;;;;13.64;73.81;92549.25;2051548;70;20238;-81
2022/10/15 01:42:12;;;;;;;22.02;13.77;;;;;;;13.58;75.06;92546.88;2051031;70;20254;-80
2022/10/15 01:44:45;;;;;;;22.45;11.70;;;;;;;13.60;74.59;92541.28;2054014;70;20980;-82
2022/10/15 01:47:55;;;;;;;17.77;8.90;;;;;;;13.63;74.64;92544.97;2048231;70;20201;-82
2022/10/15 01:50:25;;;;;;;8.10;5.30;;;;;;;13.63;73.19;92544.97;2051000;70;20158;-82
2022/10/15 01:52:51;;;;;;;10.80;5.30;;;;;;;13.65;73.78;92542.22;2051091;70;20204;-81
2022/10/15 01:55:20;;;;;;;10.25;5.78;;;;;;;13.63;74.99;92537.19;2053917;70;20249;-81
2022/10/15 01:57:47;;;;;;;15.73;8.40;;;;;;;13.62;74.72;92530.09;2051016;70;20261;-80
2022/10/15 02:00:16;;;;;;;16.15;8.07;;;;;;;13.63;74.06;92531.53;2053863;70;20150;-81
2022/10/15 02:02:42;;;;;;;16.10;6.03;;;;;;;13.65;73.24;92537.31;2048430;70;20151;-81
2022/10/15 02:05:22;;;;;;;12.30;5.68;;;;;;;13.67;74.29;92536.66;2053845;70;20149;-80
2022/10/15 02:08:06;;;;;;;12.73;4.43;;;;;;;13.64;75.29;92540.75;2051692;70;20154;-80
2022/10/15 02:10:52;;;;;;;8.00;3.97;;;;;;;13.65;74.56;92539.38;2053868;70;20158;-77
2022/10/15 02:13:30;;;;;;;11.02;4.25;;;;;;;13.64;74.85;92532.28;2051450;70;20138;-80
2022/10/15 02:16:23;;;;;;;8.88;5.25;;;;;;;13.62;73.41;92532.19;2053884;70;20193;-83
2022/10/15 02:19:11;;;;;;;12.18;6.70;;;;;;;13.64;74.12;92532.28;2051758;70;20529;-81
2022/10/15 02:21:54;;;;;;;13.13;6.85;;;;;;;13.62;74.60;92532.91;2051522;70;20154;-77
2022/10/15 02:24:28;;;;;;;13.15;5.72;;;;;;;13.61;75.25;92528.63;2051309;70;20668;-80
2022/10/15 02:26:58;;;;;;;10.95;4.63;;;;;;;13.62;74.37;92526.53;2053625;70;20134;-81
2022/10/15 02:29:29;;;;;;;11.63;4.97;;;;;;;13.59;74.05;92525.69;2051215;70;20615;-81
2022/10/15 02:31:57;;;;;;;6.22;4.55;;;;;;;13.59;74.52;92520.03;2050791;70;20141;-82
2022/10/15 02:34:26;;;;;;;9.38;4.45;;;;;;;13.54;73.30;92520.50;2050865;70;20146;-81
2022/10/15 02:36:56;;;;;;;9.27;3.58;;;;;;;13.54;73.63;92518.38;2050679;70;20252;-80
2022/10/15 02:39:23;;;;;;;8.98;3.47;;;;;;;13.60;74.41;92517.94;2051308;70;20142;-81
2022/10/15 02:41:50;;;;;;;7.30;2.35;;;;;;;13.60;72.97;92520.75;2050898;70;20221;-81
2022/10/15 02:44:16;;;;;;;6.50;3.03;;;;;;;13.56;74.48;92515.66;2050883;70;20269;-80
2022/10/15 02:46:41;;;;;;;11.05;3.00;;;;;;;13.45;75.36;92510.88;2051487;70;20142;-83
2022/10/15 02:49:08;;;;;;;4.45;2.50;;;;;;;13.47;74.78;92513.81;2048109;70;20162;-82
2022/10/15 02:51:36;;;;;;;7.40;3.67;;;;;;;13.50;74.80;92515.38;2051364;70;20150;-83
2022/10/15 02:54:04;;;;;;;7.93;2.85;;;;;;;13.53;74.72;92513.38;2053557;70;20209;-80
2022/10/15 02:56:30;;;;;;;7.72;2.80;;;;;;;13.52;74.92;92518.31;2051045;70;20154;-80
2022/10/15 02:58:55;;;;;;;8.40;2.70;;;;;;;13.57;73.56;92517.13;2051081;70;20173;-80
2022/10/15 03:01:21;;;;;;;4.38;2.58;;;;;;;13.54;74.08;92517.66;2053697;70;20143;-82
2022/10/15 03:03:47;;;;;;;7.53;2.42;;;;;;;13.53;74.31;92522.59;2051591;70;20146;-81
2022/10/15 03:06:13;;;;;;;4.57;2.50;;;;;;;13.59;74.97;92520.03;2051649;70;20142;-81
2022/10/15 03:08:43;;;;;;;6.65;2.53;;;;;;;13.60;72.71;92510.19;2051099;70;20217;-79
2022/10/15 03:11:10;;;;;;;7.28;3.15;;;;;;;13.60;74.76;92501.69;2050983;70;20142;-80
2022/10/15 03:13:37;;;;;;;6.75;2.63;;;;;;;13.63;73.15;92511.75;2050929;70;20641;-81
2022/10/15 03:16:05;;;;;;;6.72;2.90;;;;;;;13.60;72.37;92500.97;2050781;70;20586;-81
2022/10/15 03:18:31;;;;;;;6.53;2.65;;;;;;;13.52;75.00;92489.31;2051029;70;20154;-81
2022/10/15 03:20:57;;;;;;;5.68;2.40;;;;;;;13.58;73.54;92503.72;2051023;70;20173;-78
2022/10/15 03:23:24;;;;;;;14.13;2.53;;;;;;;13.35;75.96;92499.09;2051537;70;20208;-81
2022/10/15 03:25:57;;;;;;;6.88;2.78;;;;;;;13.44;75.46;92496.03;2051134;70;20154;-81
2022/10/15 03:28:23;;;;;;;3.63;2.10;;;;;;;13.55;74.23;92490.84;2051017;70;20158;-81
2022/10/15 03:30:49;;;;;;;8.55;2.53;;;;;;;13.57;73.59;92482.47;2051387;70;20244;-78
2022/10/15 03:33:16;;;;;;;9.13;2.58;;;;;;;13.58;74.47;92495.22;2050893;70;20295;-78
2022/10/15 03:35:42;;;;;;;4.93;2.33;;;;;;;13.58;73.81;92503.72;2053765;70;20138;-78
2022/10/15 03:38:08;;;;;;;6.25;2.33;;;;;;;13.57;73.28;92482.47;2048169;70;20581;-80
2022/10/15 03:40:34;;;;;;;9.48;2.53;;;;;;;13.59;74.70;92486.09;2048338;70;20138;-81
2022/10/15 03:43:14;;;;;;;6.18;2.25;;;;;;;13.60;74.65;92504.53;2051947;69;20146;-81
2022/10/15 03:45:39;;;;;;;8.88;3.05;;;;;;;13.60;74.81;92509.44;2051318;70;20138;-81
2022/10/15 03:48:25;;;;;;;5.55;2.60;;;;;;;13.58;73.48;92498.78;2051504;70;20164;-80
2022/10/15 03:50:51;;;;;;;5.55;2.90;;;;;;;13.60;72.45;92507.34;2051295;70;20150;-80
2022/10/15 03:53:16;;;;;;;3.08;2.10;;;;;;;13.63;72.03;92511.75;2048741;70;20150;-80
2022/10/15 03:55:42;;;;;;;7.75;2.38;;;;;;;13.58;74.00;92503.72;2051491;70;20150;-81
2022/10/15 03:58:08;;;;;;;12.63;8.48;;;;;;;13.61;72.26;92505.28;2048697;70;20593;-81
2022/10/15 04:00:41;;;;;;;8.27;4.57;;;;;;;13.46;75.34;92496.09;2054008;70;20628;-80
2022/10/15 04:03:08;;;;;;;12.82;7.65;;;;;;;13.52;74.66;92490.03;2054335;70;20161;-75
2022/10/15 04:05:35;;;;;;;9.57;6.07;;;;;;;13.42;73.75;92466.91;2052141;70;20154;-81
2022/10/15 04:08:04;;;;;;;8.70;4.00;;;;;;;13.44;74.95;92467.03;2051491;70;20590;-80
2022/10/15 04:10:34;;;;;;;5.28;3.15;;;;;;;13.46;73.86;92465.00;2054229;69;20153;-79
2022/10/15 04:12:59;;;;;;;6.22;3.00;;;;;;;13.44;73.30;92455.72;2054191;70;20146;-81
2022/10/15 04:15:26;;;;;;;7.90;2.58;;;;;;;13.41;74.63;92471.13;2054030;70;20164;-80
2022/10/15 04:17:56;;;;;;;8.32;2.92;;;;;;;13.44;72.86;92472.69;2052097;70;20177;-81
2022/10/15 04:20:24;;;;;;;9.07;2.78;;;;;;;13.46;73.98;92478.41;2051352;70;20652;-80
2022/10/15 04:22:50;;;;;;;8.50;2.60;;;;;;;13.46;73.54;92481.25;2048611;70;20142;-81
2022/10/15 04:25:16;;;;;;;7.40;2.35;;;;;;;13.51;73.40;92479.34;2048587;70;20170;-81
2022/10/15 04:27:42;;;;;;;7.00;2.97;;;;;;;13.49;74.29;92477.16;2054125;70;20291;-80
2022/10/15 04:30:12;;;;;;;7.13;2.90;;;;;;;13.47;74.04;92480.63;2051429;70;20209;-81
2022/10/15 04:32:43;;;;;;;5.70;3.17;;;;;;;13.50;72.83;92477.88;2051399;70;20170;-77
2022/10/15 04:35:09;;;;;;;6.72;3.20;;;;;;;13.38;73.93;92489.38;2048249;70;20594;-79
2022/10/15 04:37:55;;;;;;;11.30;4.00;;;;;;;13.45;74.87;92494.66;2051857;70;20281;-80
2022/10/15 04:40:21;;;;;;;7.65;3.67;;;;;;;13.20;77.74;92503.34;2051946;70;20150;-81
2022/10/15 04:42:47;;;;;;;4.93;3.17;;;;;;;13.32;74.28;92506.75;2054114;70;20146;-80
2022/10/15 04:45:13;;;;;;;9.48;4.03;;;;;;;13.35;75.20;92499.84;2051829;70;20224;-78
2022/10/15 04:47:38;;;;;;;8.30;4.18;;;;;;;13.41;74.30;92500.13;2053899;70;20162;-81
2022/10/15 04:50:07;;;;;;;6.13;4.45;;;;;;;13.44;74.21;92496.03;2051823;70;20526;-80
2022/10/15 04:52:52;;;;;;;9.05;4.60;;;;;;;13.44;73.24;92492.47;2051712;70;20618;-77
2022/10/15 04:55:18;;;;;;;23.15;9.50;;;;;;;13.17;77.62;92502.50;2054076;70;20610;-79
2022/10/15 04:57:44;;;;;;;12.45;6.55;;;;;;;13.30;75.61;92500.28;2052009;70;20193;-81
2022/10/15 05:00:11;;;;;;;11.85;6.10;;;;;;;13.40;74.16;92509.97;2048587;70;20545;-81
2022/10/15 05:02:55;;;;;;;9.90;4.95;;;;;;;13.40;74.15;92500.75;2051971;70;20193;-81
2022/10/15 05:05:31;;;;;;;9.85;4.40;;;;;;;13.43;72.37;92493.84;2054071;70;20162;-80
2022/10/15 05:08:02;;;;;;;12.43;6.70;;;;;;;13.43;74.30;92493.84;2051347;70;20157;-81
2022/10/15 05:10:31;;;;;;;13.90;8.02;;;;;;;13.42;73.61;92490.28;2054049;70;20154;-80
2022/10/15 05:13:02;;;;;;;13.65;7.03;;;;;;;13.41;75.76;92497.28;2048638;70;20142;-79
2022/10/15 05:15:31;;;;;;;18.50;6.20;;;;;;;13.42;74.58;92495.19;2051732;70;20178;-80
2022/10/15 05:17:57;;;;;;;8.30;4.20;;;;;;;13.40;74.86;92495.84;2053972;70;20146;-81
2022/10/15 05:20:28;;;;;;;7.25;4.05;;;;;;;13.42;72.47;92507.25;2048517;70;20146;-80
2022/10/15 05:22:54;;;;;;;10.10;5.25;;;;;;;13.33;76.21;92502.56;2054041;70;20139;-80
2022/10/15 05:25:22;;;;;;;20.17;10.80;;;;;;;13.12;77.87;92517.06;2054261;70;20249;-79
2022/10/15 05:27:47;;;;;;;18.33;9.80;;;;;;;13.14;77.54;92515.06;2054070;70;20154;-80
2022/10/15 05:30:13;;;;;;;13.20;7.35;;;;;;;13.30;76.49;92514.41;2051306;70;20166;-78
2022/10/15 05:32:50;;;;;;;11.32;5.70;;;;;;;13.33;75.50;92510.31;2054020;70;20162;-82
2022/10/15 05:35:16;;;;;;;8.20;4.10;;;;;;;13.32;74.09;92500.38;2054071;70;20636;-78
2022/10/15 05:37:53;;;;;;;17.25;8.73;;;;;;;13.33;74.81;92493.34;2048568;70;20184;-81
2022/10/15 05:40:19;;;;;;;13.55;6.97;;;;;;;13.32;74.86;92498.28;2048523;70;20138;-80
2022/10/15 05:42:52;;;;;;;12.82;4.60;;;;;;;13.34;74.71;92489.16;2054004;70;20146;-78
2022/10/15 05:45:18;;;;;;;5.40;3.75;;;;;;;13.39;73.22;92494.38;2045640;70;20142;-77
2022/10/15 05:47:43;;;;;;;5.38;3.08;;;;;;;13.21;75.66;92493.47;2054011;70;20150;-81
2022/10/15 05:50:13;;;;;;;8.57;2.58;;;;;;;13.31;75.50;92508.13;2053962;70;20238;-81
2022/10/15 05:52:43;;;;;;;4.57;1.90;;;;;;;13.36;74.84;92512.59;2051223;70;20170;-81
2022/10/15 05:55:21;;;;;;;5.55;2.08;;;;;;;13.33;74.81;92516.72;2048138;69;20218;-79
2022/10/15 05:57:47;;;;;;;3.03;1.98;;;;;;;13.40;73.97;92518.44;2048093;70;20150;-81
2022/10/15 06:00:13;;;;;;;7.07;2.45;;;;;;;13.39;74.08;92504.97;2048067;70;20137;-81
2022/10/15 06:02:39;;;;;;;5.65;3.80;;;;;;;13.01;78.17;92510.19;2047981;70;20503;-81
2022/10/15 06:05:05;;;;;;;6.38;4.57;;;;;;;13.25;75.68;92519.16;2047849;70;20240;-80
2022/10/15 06:07:31;;;;;;;5.93;3.88;;;;;;;13.41;75.74;92514.25;2048120;70;20142;-80
2022/10/15 06:09:59;;;;;;;4.70;2.28;;;;;;;13.45;75.56;92519.38;2048211;70;20185;-81
2022/10/15 06:12:29;;;;;;;6.57;2.22;;;;;;;13.49;72.87;92513.91;2048269;70;20234;-81
2022/10/15 06:14:54;;;;;;;10.70;2.33;;;;;;;13.47;72.89;92514.56;2047983;70;20581;-78
2022/10/15 06:17:20;;;;;;;5.57;3.10;;;;;;;13.53;74.10;92508.44;2048148;70;20214;-81
2022/10/15 06:19:48;;;;;;;5.13;1.92;;;;;;;13.57;72.29;92508.66;2048230;70;20162;-82
2022/10/15 06:22:13;;;;;;;6.38;2.22;;;;;;;13.57;73.28;92517.13;2048058;70;20582;-81
2022/10/15 06:24:39;;;;;;;11.25;3.67;;;;;;;13.44;76.80;92518.66;2044646;70;20148;-81
2022/10/15 06:27:06;;;;;;;7.68;3.92;;;;;;;13.46;76.19;92515.91;2048022;70;20246;-82
2022/10/15 06:29:31;;;;;;;11.63;4.32;;;;;;;13.66;73.97;92521.06;2048024;70;20143;-79
2022/10/15 06:32:00;;;;;;;5.75;4.35;;;;;;;13.68;75.11;92523.97;2047896;70;20230;-81
2022/10/15 06:34:26;;;;;;;5.75;3.70;;;;;;;13.77;72.53;92528.66;2048014;70;20248;-79
2022/10/15 06:36:52;;;;;;;7.95;3.58;;;;;;;13.76;73.80;92527.19;2048187;70;20162;-81
2022/10/15 06:39:18;;;;;;;6.72;2.40;;;;;;;13.78;73.06;92530.09;2047925;70;20139;-82
2022/10/15 06:41:43;;;;;;;7.13;3.65;;;;;;;13.53;76.41;92525.41;2048055;70;20258;-82
2022/10/15 06:44:09;;;;;;;6.63;3.15;;;;;;;13.70;73.58;92533.31;2047944;70;20153;-82
2022/10/15 06:46:38;;;;;;;4.57;2.08;;;;;;;13.81;73.50;92542.97;2047923;70;20151;-80
2022/10/15 06:49:04;;;;;;;5.32;2.60;;;;;;;13.79;73.71;92545.72;2048228;70;20159;-81
2022/10/15 06:51:29;;;;;;;7.28;3.40;;;;;;;13.84;73.47;92532.50;2047945;70;20590;-79
2022/10/15 06:53:59;;;;;;;6.30;2.60;;;;;;;13.85;72.21;92543.16;2047952;70;20169;-81
2022/10/15 06:56:25;;;;;;;4.38;2.25;;;;;;;13.91;70.99;92542.72;2047958;70;20530;-82
2022/10/15 06:58:50;;;;;;;5.63;2.35;;;;;;;13.97;71.72;92549.41;2047915;70;20142;-80
2022/10/15 07:01:16;;;;;;;4.40;2.33;;;;;;;13.98;71.14;92561.44;2050042;70;20177;-78
2022/10/15 07:03:41;;;;;;;4.20;2.40;;;;;;;13.96;71.17;92552.84;2047938;70;20147;-81
2022/10/15 07:06:08;;;;;;;6.07;2.50;;;;;;;14.01;72.89;92556.59;2047949;70;20209;-79
2022/10/15 07:08:34;;;;;;;3.63;2.30;;;;;;;14.08;72.63;92567.56;2047948;70;20143;-80
2022/10/15 07:11:01;;;;;;;7.65;2.25;;;;;;;14.14;71.01;92556.50;2047884;70;20151;-80
2022/10/15 07:13:28;;;;;;;5.82;2.60;;;;;;;14.19;72.07;92568.75;2047881;70;20538;-80
2022/10/15 07:15:56;;;;;;;4.00;2.60;;;;;;;14.15;75.52;92569.28;2048076;70;20162;-79
2022/10/15 07:18:21;;;;;;;6.35;3.50;;;;;;;14.05;74.66;92582.25;2048540;70;20189;-82
2022/10/15 07:20:47;;;;;;;4.57;3.47;;;;;;;13.94;77.17;92586.72;2048593;70;20175;-82
2022/10/15 07:23:13;;;;;;;6.88;3.30;;;;;;;14.06;73.54;92587.28;2048369;70;20151;-82
2022/10/15 07:25:38;;;;;;;9.50;4.50;;;;;;;14.12;73.05;92590.41;2048548;70;20171;-82
2022/10/15 07:28:05;;;;;;;7.85;4.03;;;;;;;14.16;72.10;92587.75;2048422;70;20157;-81
2022/10/15 07:30:31;;;;;;;13.75;4.95;;;;;;;14.02;73.07;92577.84;2048356;70;20169;-78
2022/10/15 07:33:01;;;;;;;8.70;5.55;;;;;;;14.05;73.72;92577.31;2048382;70;20534;-79
2022/10/15 07:35:27;;;;;;;9.07;5.55;;;;;;;13.99;75.50;92568.56;2048393;70;20182;-79
2022/10/15 07:37:52;;;;;;;7.53;5.22;;;;;;;14.17;73.72;92569.41;2048474;70;20135;-81
2022/10/15 07:40:18;;;;;;;10.98;5.75;;;;;;;14.36;74.72;92568.09;2048325;70;20245;-81
2022/10/15 07:42:43;;;;;;;12.18;5.10;;;;;;;14.41;74.29;92569.75;2048546;70;20147;-80
2022/10/15 07:45:10;;;;;;;11.77;4.35;;;;;;;14.56;73.10;92578.91;2045464;70;20139;-78
2022/10/15 07:47:35;;;;;;;10.20;4.40;;;;;;;14.41;72.19;92580.34;2051257;70;20230;-81
2022/10/15 07:50:01;;;;;;;11.88;4.60;;;;;;;14.30;74.17;92573.50;2048779;70;20234;-80
2022/10/15 07:52:26;;;;;;;10.88;5.28;;;;;;;14.53;73.77;92577.38;2048370;70;20605;-79
2022/10/15 07:54:52;;;;;;;9.65;4.00;;;;;;;14.38;73.50;92581.63;2048481;70;20206;-82
2022/10/15 07:57:18;;;;;;;9.63;3.90;;;;;;;14.54;72.22;92576.00;2048311;70;20199;-80
2022/10/15 07:59:43;;;;;;;8.25;3.40;;;;;;;14.69;71.85;92575.22;2045029;70;20158;-81
2022/10/15 08:02:16;;;;;;;8.82;3.60;;;;;;;14.78;71.59;92579.88;2048017;70;20616;-81
2022/10/15 08:04:42;;;;;;;10.20;3.90;;;;;;;14.84;71.97;92571.63;2048173;70;20145;-81
2022/10/15 08:07:08;;;;;;;11.40;4.10;;;;;;;14.87;71.84;92569.63;2048122;70;20154;-81
2022/10/15 08:09:33;;;;;;;8.73;3.70;;;;;;;14.77;73.09;92564.25;2048234;70;20146;-80
2022/10/15 08:11:59;;;;;;;9.65;4.00;;;;;;;14.78;70.54;92567.81;2048185;70;20570;-80
2022/10/15 08:14:24;;;;;;;10.68;3.63;;;;;;;14.96;69.73;92568.59;2048229;70;20590;-80
2022/10/15 08:16:52;;;;;;;8.50;3.17;;;;;;;14.94;71.87;92569.25;2048655;70;20610;-80
2022/10/15 08:19:17;;;;;;;11.10;3.55;;;;;;;15.06;72.64;92565.47;2048108;70;20149;-80
2022/10/15 08:21:48;;;;;;;9.57;3.33;;;;;;;15.22;73.41;92564.03;2048331;70;20491;-81
2022/10/15 08:24:13;;;;;;;9.77;4.07;;;;;;;15.28;73.66;92574.16;2048098;70;20142;-80
2022/10/15 08:26:39;;;;;;;9.32;4.57;;;;;;;15.32;73.90;92580.00;2047968;70;20598;-79
2022/10/15 08:29:04;;;;;;;10.05;4.40;;;;;;;15.37;69.46;92581.63;2048098;70;20173;-79
2022/10/15 08:31:33;;;;;;;8.55;3.80;;;;;;;15.23;74.07;92601.63;2048087;70;20157;-82
2022/10/15 08:34:00;;;;;;;11.90;4.63;;;;;;;14.65;77.08;92583.56;2048189;70;20158;-82
2022/10/15 08:36:25;;;;;;;6.00;3.80;;;;;;;14.95;76.17;92595.50;2048230;70;20189;-82
2022/10/15 08:38:51;;;;;;;10.35;4.57;;;;;;;15.20;73.63;92594.41;2048152;70;20234;-79
2022/10/15 08:41:32;;;;;;;7.78;4.40;;;;;;;15.29;74.31;92586.97;2048119;70;20177;-81
2022/10/15 08:43:58;;;;;;;22.02;10.98;;;;;;;15.46;73.37;92578.47;2048066;70;20230;-79
2022/10/15 08:46:31;;;;;;;17.27;7.57;;;;;;;15.69;72.32;92580.13;2044733;70;20233;-82
2022/10/15 08:48:59;;;;;;;9.38;5.07;;;;;;;15.95;71.85;92576.91;2048234;70;20704;-81
2022/10/15 08:51:38;;;;;;;6.60;4.00;;;;;;;15.98;70.96;92575.56;2048221;70;20155;-80
2022/10/15 08:54:05;;;;;;;8.13;4.10;;;;;;;16.18;69.61;92584.16;2048177;70;20154;-79
2022/10/15 08:56:38;;;;;;;5.55;4.07;;;;;;;16.28;70.65;92576.03;2048142;70;20157;-79
2022/10/15 08:59:13;;;;;;;7.03;4.35;;;;;;;16.47;70.89;92581.00;2048238;70;20153;-82
2022/10/15 09:01:56;;;;;;;8.35;4.72;;;;;;;16.58;69.91;92575.69;2048032;70;20557;-81
2022/10/15 09:04:51;;;;;;;9.82;4.70;;;;;;;16.50;70.41;92587.50;2048200;70;20182;-82
2022/10/15 09:07:42;;;;;;;8.80;5.25;;;;;;;16.45;70.67;92583.78;2048125;70;20209;-82
2022/10/15 09:10:38;;;;;;;11.85;5.28;;;;;;;16.37;69.91;92589.16;2048170;70;20151;-82
2022/10/15 09:13:15;;;;;;;8.35;4.38;;;;;;;16.56;69.00;92584.88;2047604;70;20161;-81
2022/10/15 09:15:49;;;;;;;7.55;4.18;;;;;;;16.65;68.28;92575.25;2047953;70;20242;-79
2022/10/15 09:18:22;;;;;;;9.32;3.85;;;;;;;16.69;67.82;92591.75;2048060;70;20139;-81
2022/10/15 09:20:50;;;;;;;7.47;3.70;;;;;;;16.78;67.58;92590.66;2048105;70;20165;-81
2022/10/15 09:23:24;;;;;;;7.43;3.75;;;;;;;16.83;67.95;92583.75;2044914;70;20623;-81
2022/10/15 09:26:25;;;;;;;8.90;3.97;;;;;;;17.12;67.37;92581.91;2048386;70;20249;-82
2022/10/15 09:28:53;;;;;;;6.30;3.47;;;;;;;17.36;67.38;92584.84;2042583;70;20150;-81
2022/10/15 09:31:24;;;;;;;9.65;6.63;;;;;;;16.93;68.20;92586.22;2048166;70;20241;-81
2022/10/15 09:33:55;;;;;;;11.05;6.03;;;;;;;16.96;67.86;92585.63;2051170;70;20146;-87
2022/10/15 09:36:50;;;;;;;9.73;4.60;;;;;;;16.88;68.36;92578.94;2049614;70;20139;-80
2022/10/15 09:39:48;;;;;;;8.98;4.22;;;;;;;17.03;69.07;92587.28;2048165;70;20155;-76
2022/10/15 09:42:23;;;;;;;9.30;4.45;;;;;;;17.26;67.21;92583.09;2048030;70;20301;-75
2022/10/15 09:44:51;;;;;;;8.80;4.97;;;;;;;17.10;67.28;92598.91;2048002;70;20546;-76
2022/10/15 09:47:31;;;;;;;11.98;6.15;;;;;;;17.29;66.97;92589.59;2047381;70;20166;-75
2022/10/15 09:50:05;;;;;;;21.15;9.90;;;;;;;17.46;65.80;92593.75;2048109;70;20142;-75
2022/10/15 09:52:42;;;;;;;13.77;6.10;;;;;;;17.52;64.82;92599.63;2048044;70;20598;-75
2022/10/15 09:55:23;;;;;;;8.38;4.47;;;;;;;17.25;66.41;92598.00;2048018;70;20514;-77
2022/10/15 09:57:53;;;;;;;14.85;7.25;;;;;;;17.04;67.21;92585.19;2048102;70;20171;-76
2022/10/15 10:00:21;;;;;;;13.23;5.65;;;;;;;17.61;66.78;92589.97;2044694;70;20138;-75
2022/10/15 10:03:05;;;;;;;9.43;4.18;;;;;;;17.68;65.41;92588.75;2048072;70;20226;-76
2022/10/15 10:05:34;;;;;;;6.82;3.50;;;;;;;18.47;66.04;92593.41;2044639;70;20185;-76
2022/10/15 10:08:18;;;;;;;13.77;5.38;;;;;;;19.03;62.36;92590.03;2048006;70;20147;-76
2022/10/15 10:10:44;;;;;;;8.45;4.75;;;;;;;18.63;61.01;92589.56;2048063;70;20538;-76
2022/10/15 10:13:32;;;;;;;7.55;4.20;;;;;;;18.74;61.23;92597.06;2047968;70;20135;-76
2022/10/15 10:16:08;;;;;;;9.98;4.00;;;;;;;19.37;61.41;92587.38;2047801;70;20142;-76
2022/10/15 10:18:36;;;;;;;11.32;3.58;;;;;;;19.69;59.32;92589.63;2048120;70;20149;-76
2022/10/15 10:21:19;;;;;;;4.90;3.05;;;;;;;20.02;58.62;92591.16;2048032;70;20142;-77
2022/10/15 10:23:46;;;;;;;8.32;3.22;;;;;;;20.69;56.87;92587.00;2047936;70;20147;-77
2022/10/15 10:26:12;;;;;;;5.95;2.67;;;;;;;20.77;55.51;92587.19;2048019;70;20151;-76
2022/10/15 10:28:54;;;;;;;5.57;2.42;;;;;;;21.11;54.28;92582.84;2048020;70;20171;-77
2022/10/15 10:31:41;;;;;;;3.40;2.80;;;;;;;21.32;54.92;92579.00;2047912;70;20625;-78
2022/10/15 10:34:16;;;;;;;4.72;2.70;;;;;;;21.17;54.04;92575.09;2048057;70;20178;-78
2022/10/15 10:36:50;;;;;;;3.60;2.50;;;;;;;22.23;50.57;92579.16;2048172;70;20161;-78
2022/10/15 10:39:29;;;;;;;5.82;2.40;;;;;;;23.61;50.09;92582.38;2048009;70;20241;-77
2022/10/15 10:41:57;;;;;;;3.95;2.17;;;;;;;24.55;46.27;92587.56;2047963;70;20158;-77
2022/10/15 10:44:30;;;;;;;9.63;2.63;;;;;;;24.63;45.07;92589.06;2047886;70;20174;-78
2022/10/15 10:47:10;;;;;;;8.18;2.40;;;;;;;25.30;45.60;92586.56;2047673;70;20158;-76
2022/10/15 10:49:48;;;;;;;3.28;2.03;;;;;;;25.72;45.86;92585.97;2048099;70;20151;-77
2022/10/15 10:52:21;;;;;;;6.93;2.33;;;;;;;27.32;39.25;92586.69;2049116;70;20131;-77
2022/10/15 10:55:12;;;;;;;5.93;2.22;;;;;;;29.07;38.21;92596.41;2048984;70;20253;-76
2022/10/15 10:57:44;;;;;;;5.60;2.22;;;;;;;26.93;39.41;92586.03;2046452;70;20249;-77
2022/10/15 11:00:17;;;;;;;5.93;2.00;;;;;;;28.14;38.09;92587.00;2048939;70;20226;-76
2022/10/15 11:02:48;;;;;;;3.58;2.20;;;;;;;28.43;36.54;92581.03;2049114;70;20182;-76
2022/10/15 11:05:21;;;;;;;5.30;1.98;;;;;;;29.18;36.35;92576.72;2049057;70;20170;-77
2022/10/15 11:08:06;;;;;;;7.78;2.20;;;;;;;30.03;34.27;92581.47;2049000;70;20155;-77
2022/10/15 11:11:01;;;;;;;12.35;2.45;;;;;;;29.59;34.34;92574.81;2045110;70;20153;-76
2022/10/15 11:13:58;;;;;;;14.00;2.95;;;;;;;32.57;30.28;92571.69;2048875;70;20146;-77
2022/10/15 11:16:24;;;;;;;10.38;2.38;;;;;;;34.46;30.14;92576.78;2047420;70;20615;-76
2022/10/15 11:19:07;;;;;;;7.10;2.03;;;;;;;32.06;31.47;92578.66;2048927;70;20134;-77
2022/10/15 11:22:02;;;;;;;8.35;2.40;;;;;;;32.49;31.31;92569.69;2048910;70;20148;-78
2022/10/15 11:24:48;;;;;;;10.68;2.50;;;;;;;31.10;32.79;92577.63;2051475;70;20157;-76
2022/10/15 11:27:37;;;;;;;10.60;2.67;;;;;;;28.31;36.00;92562.25;2051221;70;20755;-78
2022/10/15 11:30:31;;;;;;;5.47;2.28;;;;;;;28.24;36.81;92563.06;2051958;70;20311;-79
2022/10/15 11:33:32;;;;;;;6.28;2.08;;;;;;;27.42;39.00;92554.13;2052467;69;20248;-78
2022/10/15 11:36:28;;;;;;;8.77;2.83;;;;;;;27.68;38.92;92556.16;2051992;70;20158;-77
2022/10/15 11:39:12;;;;;;;5.35;2.45;;;;;;;26.42;40.25;92543.50;2051829;70;20177;-79
2022/10/15 11:41:38;;;;;;;5.28;2.40;;;;;;;25.30;41.35;92540.47;2051871;70;20146;-78
2022/10/15 11:44:03;;;;;;;9.00;2.72;;;;;;;25.75;42.14;92532.66;2051512;70;20766;-78
2022/10/15 11:46:41;;;;;;;11.38;3.17;;;;;;;25.54;41.85;92525.41;2051827;69;20145;-78
2022/10/15 11:49:45;;;;;;;7.03;2.25;;;;;;;27.54;38.98;92536.72;2051861;70;20158;-77
2022/10/15 11:52:41;;;;;;;5.97;2.33;;;;;;;28.05;38.08;92533.53;2050739;70;20162;-79